EPSC/SZZ METAR and TAF weather

Enter ICAO airport designator
Station Type Date Time Source
EPSC METAR 2018/10/22 16:30 UTC NOAA

EPSC 221630Z 28006KT 9999 FEW032 06/03 Q1026


Station Type Date Time Source
EPSC Decoded METAR 2018/10/22 16:30 UTC NOAA

Szczecin, Poland (EPSC) 53-24N 014-37E 3M
Oct 22, 2018 - 12:30 PM EDT / 2018.10.22 1630 UTC
Wind: from the W (280 degrees) at 7 MPH (6 KT):0
Visibility: greater than 7 mile(s):0
Sky conditions: mostly clear
Temperature: 42 F (6 C)
Dew Point: 37 F (3 C)
Relative Humidity: 81%
Pressure (altimeter): 30.30 in. Hg (1026 hPa)
ob: EPSC 221630Z 28006KT 9999 FEW032 06/03 Q1026
cycle: 16

Station Type Date Time Source
EPSC TAF 2018/10/22 12:33 UTC NOAA

TAF EPSC 221130Z 2212/2312 32012KT 9999 SCT025 BKN040
BECMG 2217/2220 26008KT
BECMG 2303/2306 24020KT BKN014
BECMG 2306/2309 4000 RA BKN008
TEMPO 2306/2312 26025G40KT 2000 RA BKN005


Example: see airport list